sensor_id;sensor_type;location;lat;lon;timestamp;pressure;altitude;pressure_sealevel;temperature;humidity
10852;BME280;5479;52.046;6.314;2023-04-02T00:00:04;101051.75;;;6.48;100.00
10852;BME280;5479;52.046;6.314;2023-04-02T00:02:54;101057.53;;;6.34;100.00
10852;BME280;5479;52.046;6.314;2023-04-02T00:05:42;101054.31;;;6.28;100.00
10852;BME280;5479;52.046;6.314;2023-04-02T00:08:20;101065.63;;;6.30;100.00
10852;BME280;5479;52.046;6.314;2023-04-02T00:10:50;101068.25;;;6.30;100.00
10852;BME280;5479;52.046;6.314;2023-04-02T00:13:27;101064.06;;;6.24;100.00
10852;BME280;5479;52.046;6.314;2023-04-02T00:15:58;101068.47;;;6.24;100.00
10852;BME280;5479;52.046;6.314;2023-04-02T00:18:28;101083.53;;;6.20;100.00
10852;BME280;5479;52.046;6.314;2023-04-02T00:21:07;101090.59;;;6.18;100.00
10852;BME280;5479;52.046;6.314;2023-04-02T00:23:37;101086.72;;;6.28;100.00
10852;BME280;5479;52.046;6.314;2023-04-02T00:26:21;101105.38;;;6.21;100.00
10852;BME280;5479;52.046;6.314;2023-04-02T00:28:50;101103.72;;;6.18;100.00
10852;BME280;5479;52.046;6.314;2023-04-02T00:31:19;101102.31;;;6.10;100.00
10852;BME280;5479;52.046;6.314;2023-04-02T00:33:49;101112.00;;;6.07;100.00
10852;BME280;5479;52.046;6.314;2023-04-02T00:36:17;101110.25;;;6.08;100.00
10852;BME280;5479;52.046;6.314;2023-04-02T00:38:48;101122.59;;;6.06;100.00
10852;BME280;5479;52.046;6.314;2023-04-02T00:41:20;101132.84;;;6.14;100.00
10852;BME280;5479;52.046;6.314;2023-04-02T00:43:49;101138.06;;;6.15;100.00
10852;BME280;5479;52.046;6.314;2023-04-02T00:46:20;101136.75;;;6.02;100.00
10852;BME280;5479;52.046;6.314;2023-04-02T00:48:57;101137.59;;;6.02;100.00
10852;BME280;5479;52.046;6.314;2023-04-02T00:51:29;101149.75;;;6.06;100.00
10852;BME280;5479;52.046;6.314;2023-04-02T00:54:01;101153.34;;;6.04;100.00
10852;BME280;5479;52.046;6.314;2023-04-02T00:56:33;101152.38;;;6.06;100.00
10852;BME280;5479;52.046;6.314;2023-04-02T00:59:04;101158.53;;;6.05;100.00
10852;BME280;5479;52.046;6.314;2023-04-02T01:01:44;101158.50;;;6.07;100.00
10852;BME280;5479;52.046;6.314;2023-04-02T01:04:29;101156.88;;;6.03;100.00
10852;BME280;5479;52.046;6.314;2023-04-02T01:07:02;101160.16;;;6.10;100.00
10852;BME280;5479;52.046;6.314;2023-04-02T01:10:06;101165.41;;;6.10;100.00
10852;BME280;5479;52.046;6.314;2023-04-02T01:12:47;101164.50;;;6.11;100.00
10852;BME280;5479;52.046;6.314;2023-04-02T01:15:23;101172.16;;;6.17;100.00
10852;BME280;5479;52.046;6.314;2023-04-02T01:18:10;101175.94;;;6.10;100.00
10852;BME280;5479;52.046;6.314;2023-04-02T01:21:01;101186.88;;;5.97;100.00
10852;BME280;5479;52.046;6.314;2023-04-02T01:23:38;101200.94;;;5.96;100.00
10852;BME280;5479;52.046;6.314;2023-04-02T01:26:15;101198.59;;;5.87;100.00
10852;BME280;5479;52.046;6.314;2023-04-02T01:28:59;101196.84;;;5.88;100.00
10852;BME280;5479;52.046;6.314;2023-04-02T01:31:33;101189.75;;;5.90;100.00
10852;BME280;5479;52.046;6.314;2023-04-02T01:34:05;101202.97;;;5.88;100.00
10852;BME280;5479;52.046;6.314;2023-04-02T01:36:38;101203.06;;;5.85;100.00
10852;BME280;5479;52.046;6.314;2023-04-02T01:39:18;101221.47;;;5.85;100.00
10852;BME280;5479;52.046;6.314;2023-04-02T01:41:56;101227.66;;;5.83;100.00
10852;BME280;5479;52.046;6.314;2023-04-02T01:44:33;101226.19;;;5.73;100.00
10852;BME280;5479;52.046;6.314;2023-04-02T01:47:09;101233.25;;;5.72;100.00
10852;BME280;5479;52.046;6.314;2023-04-02T01:49:38;101232.38;;;5.72;100.00
10852;BME280;5479;52.046;6.314;2023-04-02T01:52:11;101242.28;;;5.64;100.00
10852;BME280;5479;52.046;6.314;2023-04-02T01:54:40;101253.78;;;5.60;100.00
10852;BME280;5479;52.046;6.314;2023-04-02T01:57:08;101260.00;;;5.57;100.00
10852;BME280;5479;52.046;6.314;2023-04-02T01:59:38;101263.34;;;5.62;100.00
10852;BME280;5479;52.046;6.314;2023-04-02T02:02:10;101273.75;;;5.65;100.00
10852;BME280;5479;52.046;6.314;2023-04-02T02:04:39;101272.78;;;5.68;100.00
10852;BME280;5479;52.046;6.314;2023-04-02T02:07:13;101280.72;;;5.66;100.00
10852;BME280;5479;52.046;6.314;2023-04-02T02:09:43;101281.69;;;5.64;100.00
10852;BME280;5479;52.046;6.314;2023-04-02T02:12:12;101293.81;;;5.68;100.00
10852;BME280;5479;52.046;6.314;2023-04-02T02:14:46;101287.91;;;5.61;100.00
10852;BME280;5479;52.046;6.314;2023-04-02T02:17:17;101286.34;;;5.54;100.00
10852;BME280;5479;52.046;6.314;2023-04-02T02:19:46;101294.84;;;5.62;100.00
10852;BME280;5479;52.046;6.314;2023-04-02T02:22:25;101304.28;;;5.69;100.00
10852;BME280;5479;52.046;6.314;2023-04-02T02:24:56;101304.94;;;5.48;100.00
10852;BME280;5479;52.046;6.314;2023-04-02T02:27:48;101319.31;;;5.36;100.00
10852;BME280;5479;52.046;6.314;2023-04-02T02:30:25;101313.28;;;5.33;100.00
10852;BME280;5479;52.046;6.314;2023-04-02T02:32:58;101317.81;;;5.28;100.00
10852;BME280;5479;52.046;6.314;2023-04-02T02:35:31;101331.00;;;5.25;100.00
10852;BME280;5479;52.046;6.314;2023-04-02T02:38:11;101334.81;;;5.15;100.00
10852;BME280;5479;52.046;6.314;2023-04-02T02:40:44;101334.72;;;5.18;100.00
10852;BME280;5479;52.046;6.314;2023-04-02T02:43:16;101357.78;;;5.07;100.00
10852;BME280;5479;52.046;6.314;2023-04-02T02:45:46;101347.91;;;5.16;100.00
10852;BME280;5479;52.046;6.314;2023-04-02T02:48:17;101358.28;;;5.21;100.00
10852;BME280;5479;52.046;6.314;2023-04-02T02:50:46;101356.63;;;5.17;100.00
10852;BME280;5479;52.046;6.314;2023-04-02T02:53:16;101364.88;;;5.05;100.00
10852;BME280;5479;52.046;6.314;2023-04-02T02:55:48;101379.75;;;5.04;100.00
10852;BME280;5479;52.046;6.314;2023-04-02T02:58:19;101385.00;;;5.04;100.00
10852;BME280;5479;52.046;6.314;2023-04-02T03:00:53;101379.00;;;4.99;100.00
10852;BME280;5479;52.046;6.314;2023-04-02T03:03:23;101385.84;;;5.05;100.00
10852;BME280;5479;52.046;6.314;2023-04-02T03:05:55;101384.13;;;5.04;100.00
10852;BME280;5479;52.046;6.314;2023-04-02T03:08:28;101391.19;;;5.02;100.00
10852;BME280;5479;52.046;6.314;2023-04-02T03:11:04;101398.94;;;5.06;100.00
10852;BME280;5479;52.046;6.314;2023-04-02T03:13:34;101400.75;;;5.04;100.00
10852;BME280;5479;52.046;6.314;2023-04-02T03:16:09;101402.47;;;5.05;100.00
10852;BME280;5479;52.046;6.314;2023-04-02T03:18:44;101409.47;;;5.05;100.00
10852;BME280;5479;52.046;6.314;2023-04-02T03:21:21;101416.63;;;5.00;100.00
10852;BME280;5479;52.046;6.314;2023-04-02T03:23:54;101417.38;;;5.05;100.00
10852;BME280;5479;52.046;6.314;2023-04-02T03:26:26;101428.00;;;5.00;100.00
10852;BME280;5479;52.046;6.314;2023-04-02T03:29:01;101441.06;;;5.02;100.00
10852;BME280;5479;52.046;6.314;2023-04-02T03:31:36;101434.91;;;5.03;100.00
10852;BME280;5479;52.046;6.314;2023-04-02T03:34:10;101436.63;;;5.04;100.00
10852;BME280;5479;52.046;6.314;2023-04-02T03:36:47;101446.97;;;5.10;100.00
10852;BME280;5479;52.046;6.314;2023-04-02T03:39:21;101462.13;;;4.99;100.00
10852;BME280;5479;52.046;6.314;2023-04-02T03:41:55;101463.88;;;5.00;100.00
10852;BME280;5479;52.046;6.314;2023-04-02T03:44:28;101467.16;;;5.08;100.00
10852;BME280;5479;52.046;6.314;2023-04-02T03:47:03;101464.81;;;4.97;100.00
10852;BME280;5479;52.046;6.314;2023-04-02T03:49:38;101474.38;;;4.98;100.00
10852;BME280;5479;52.046;6.314;2023-04-02T03:52:09;101477.22;;;4.91;100.00
10852;BME280;5479;52.046;6.314;2023-04-02T03:54:39;101480.84;;;4.86;100.00
10852;BME280;5479;52.046;6.314;2023-04-02T03:57:11;101489.91;;;4.73;100.00
10852;BME280;5479;52.046;6.314;2023-04-02T03:59:47;101482.06;;;4.72;100.00
10852;BME280;5479;52.046;6.314;2023-04-02T04:02:32;101500.31;;;4.76;100.00
10852;BME280;5479;52.046;6.314;2023-04-02T04:05:02;101501.66;;;4.57;100.00
10852;BME280;5479;52.046;6.314;2023-04-02T04:07:37;101501.66;;;4.57;100.00
10852;BME280;5479;52.046;6.314;2023-04-02T04:10:16;101526.19;;;4.55;100.00
10852;BME280;5479;52.046;6.314;2023-04-02T04:12:46;101527.97;;;4.54;100.00
10852;BME280;5479;52.046;6.314;2023-04-02T04:15:18;101533.41;;;4.45;100.00
10852;BME280;5479;52.046;6.314;2023-04-02T04:17:53;101543.69;;;4.54;100.00
10852;BME280;5479;52.046;6.314;2023-04-02T04:20:30;101548.19;;;4.49;100.00
10852;BME280;5479;52.046;6.314;2023-04-02T04:23:09;101554.16;;;4.56;100.00
10852;BME280;5479;52.046;6.314;2023-04-02T04:25:38;101557.00;;;4.45;100.00
10852;BME280;5479;52.046;6.314;2023-04-02T04:28:13;101579.91;;;4.37;100.00
10852;BME280;5479;52.046;6.314;2023-04-02T04:30:51;101573.81;;;4.37;100.00
10852;BME280;5479;52.046;6.314;2023-04-02T04:33:24;101577.63;;;4.22;100.00
10852;BME280;5479;52.046;6.314;2023-04-02T04:35:55;101589.00;;;4.21;100.00
10852;BME280;5479;52.046;6.314;2023-04-02T04:38:29;101587.34;;;4.17;100.00
10852;BME280;5479;52.046;6.314;2023-04-02T04:41:02;101591.81;;;4.12;100.00
10852;BME280;5479;52.046;6.314;2023-04-02T04:43:41;101594.31;;;4.18;100.00
10852;BME280;5479;52.046;6.314;2023-04-02T04:46:15;101591.16;;;4.01;100.00
10852;BME280;5479;52.046;6.314;2023-04-02T04:48:51;101609.47;;;4.02;100.00
10852;BME280;5479;52.046;6.314;2023-04-02T04:51:23;101609.31;;;4.10;100.00
10852;BME280;5479;52.046;6.314;2023-04-02T04:53:53;101623.47;;;4.01;100.00
10852;BME280;5479;52.046;6.314;2023-04-02T04:56:24;101614.03;;;3.93;100.00
10852;BME280;5479;52.046;6.314;2023-04-02T04:58:58;101633.25;;;3.92;100.00
10852;BME280;5479;52.046;6.314;2023-04-02T05:01:32;101632.44;;;3.90;100.00
10852;BME280;5479;52.046;6.314;2023-04-02T05:04:09;101642.09;;;3.88;100.00
10852;BME280;5479;52.046;6.314;2023-04-02T05:06:42;101641.28;;;3.84;100.00
10852;BME280;5479;52.046;6.314;2023-04-02T05:09:16;101662.19;;;3.86;100.00
10852;BME280;5479;52.046;6.314;2023-04-02T05:11:57;101661.31;;;3.87;100.00
10852;BME280;5479;52.046;6.314;2023-04-02T05:14:30;101669.94;;;3.92;100.00
10852;BME280;5479;52.046;6.314;2023-04-02T05:17:03;101670.19;;;3.80;100.00
10852;BME280;5479;52.046;6.314;2023-04-02T05:19:38;101694.53;;;3.85;100.00
10852;BME280;5479;52.046;6.314;2023-04-02T05:22:19;101694.59;;;3.80;100.00
10852;BME280;5479;52.046;6.314;2023-04-02T05:24:55;101692.06;;;3.76;100.00
10852;BME280;5479;52.046;6.314;2023-04-02T05:27:30;101705.13;;;3.79;100.00
10852;BME280;5479;52.046;6.314;2023-04-02T05:30:08;101705.16;;;3.76;100.00
10852;BME280;5479;52.046;6.314;2023-04-02T05:32:42;101721.03;;;3.66;100.00
10852;BME280;5479;52.046;6.314;2023-04-02T05:35:18;101726.22;;;3.70;100.00
10852;BME280;5479;52.046;6.314;2023-04-02T05:37:47;101728.78;;;3.73;100.00
10852;BME280;5479;52.046;6.314;2023-04-02T05:40:22;101746.22;;;3.75;100.00
10852;BME280;5479;52.046;6.314;2023-04-02T05:42:53;101748.81;;;3.77;100.00
10852;BME280;5479;52.046;6.314;2023-04-02T05:45:27;101751.63;;;3.66;100.00
10852;BME280;5479;52.046;6.314;2023-04-02T05:47:59;101758.72;;;3.58;100.00
10852;BME280;5479;52.046;6.314;2023-04-02T05:50:33;101758.75;;;3.56;100.00
10852;BME280;5479;52.046;6.314;2023-04-02T05:53:09;101777.19;;;3.50;100.00
10852;BME280;5479;52.046;6.314;2023-04-02T05:55:49;101777.06;;;3.56;100.00
10852;BME280;5479;52.046;6.314;2023-04-02T05:58:26;101784.81;;;3.64;100.00
10852;BME280;5479;52.046;6.314;2023-04-02T06:01:03;101790.13;;;3.61;100.00
10852;BME280;5479;52.046;6.314;2023-04-02T06:03:39;101802.16;;;3.73;100.00
10852;BME280;5479;52.046;6.314;2023-04-02T06:06:17;101804.00;;;3.66;100.00
10852;BME280;5479;52.046;6.314;2023-04-02T06:08:53;101802.16;;;3.74;100.00
10852;BME280;5479;52.046;6.314;2023-04-02T06:11:27;101805.00;;;3.57;100.00
10852;BME280;5479;52.046;6.314;2023-04-02T06:13:58;101816.31;;;3.61;100.00
10852;BME280;5479;52.046;6.314;2023-04-02T06:16:28;101822.53;;;3.52;100.00
10852;BME280;5479;52.046;6.314;2023-04-02T06:18:57;101827.91;;;3.43;100.00
10852;BME280;5479;52.046;6.314;2023-04-02T06:21:26;101833.06;;;3.49;100.00
10852;BME280;5479;52.046;6.314;2023-04-02T06:23:57;101841.09;;;3.36;100.00
10852;BME280;5479;52.046;6.314;2023-04-02T06:26:31;101850.63;;;3.40;100.00
10852;BME280;5479;52.046;6.314;2023-04-02T06:29:04;101857.47;;;3.51;100.00
10852;BME280;5479;52.046;6.314;2023-04-02T06:31:35;101853.94;;;3.55;100.00
10852;BME280;5479;52.046;6.314;2023-04-02T06:34:07;101859.22;;;3.52;100.00
10852;BME280;5479;52.046;6.314;2023-04-02T06:36:39;101868.88;;;3.47;100.00
10852;BME280;5479;52.046;6.314;2023-04-02T06:39:11;101868.91;;;3.43;100.00
10852;BME280;5479;52.046;6.314;2023-04-02T06:41:44;101877.66;;;3.43;100.00
10852;BME280;5479;52.046;6.314;2023-04-02T06:44:18;101885.41;;;3.52;100.00
10852;BME280;5479;52.046;6.314;2023-04-02T06:46:50;101892.41;;;3.50;100.00
10852;BME280;5479;52.046;6.314;2023-04-02T06:49:22;101885.28;;;3.60;100.00
10852;BME280;5479;52.046;6.314;2023-04-02T06:51:54;101888.66;;;3.66;100.00
10852;BME280;5479;52.046;6.314;2023-04-02T06:54:23;101892.34;;;3.53;100.00
10852;BME280;5479;52.046;6.314;2023-04-02T06:56:52;101906.34;;;3.52;100.00
10852;BME280;5479;52.046;6.314;2023-04-02T06:59:21;101912.22;;;3.71;100.00
10852;BME280;5479;52.046;6.314;2023-04-02T07:01:51;101914.84;;;3.70;100.00
10852;BME280;5479;52.046;6.314;2023-04-02T07:04:23;101921.84;;;3.67;100.00
10852;BME280;5479;52.046;6.314;2023-04-02T07:06:53;101932.41;;;3.61;100.00
10852;BME280;5479;52.046;6.314;2023-04-02T07:09:22;101928.00;;;3.65;100.00
10852;BME280;5479;52.046;6.314;2023-04-02T07:11:51;101937.59;;;3.64;100.00
10852;BME280;5479;52.046;6.314;2023-04-02T07:14:19;101936.81;;;3.61;100.00
10852;BME280;5479;52.046;6.314;2023-04-02T07:16:47;101956.06;;;3.54;100.00
10852;BME280;5479;52.046;6.314;2023-04-02T07:19:17;101953.38;;;3.58;100.00
10852;BME280;5479;52.046;6.314;2023-04-02T07:21:46;101964.78;;;3.57;100.00
10852;BME280;5479;52.046;6.314;2023-04-02T07:24:16;101962.16;;;3.57;100.00
10852;BME280;5479;52.046;6.314;2023-04-02T07:26:43;101974.28;;;3.64;100.00
10852;BME280;5479;52.046;6.314;2023-04-02T07:29:15;101980.31;;;3.71;100.00
10852;BME280;5479;52.046;6.314;2023-04-02T07:31:43;101970.66;;;3.76;100.00
10852;BME280;5479;52.046;6.314;2023-04-02T07:34:11;101974.19;;;3.74;100.00
10852;BME280;5479;52.046;6.314;2023-04-02T07:36:38;101983.81;;;3.70;100.00
10852;BME280;5479;52.046;6.314;2023-04-02T07:39:07;102004.88;;;3.62;100.00
10852;BME280;5479;52.046;6.314;2023-04-02T07:41:51;101993.53;;;3.59;100.00
10852;BME280;5479;52.046;6.314;2023-04-02T07:44:20;101998.75;;;3.63;100.00
10852;BME280;5479;52.046;6.314;2023-04-02T07:46:48;102002.16;;;3.72;100.00
10852;BME280;5479;52.046;6.314;2023-04-02T07:49:16;102000.25;;;3.83;100.00
10852;BME280;5479;52.046;6.314;2023-04-02T07:51:44;102006.97;;;4.03;100.00
10852;BME280;5479;52.046;6.314;2023-04-02T07:54:14;102018.06;;;4.23;100.00
10852;BME280;5479;52.046;6.314;2023-04-02T07:56:42;102012.88;;;4.19;100.00
10852;BME280;5479;52.046;6.314;2023-04-02T07:59:11;102012.09;;;4.14;100.00
10852;BME280;5479;52.046;6.314;2023-04-02T08:01:39;102022.28;;;4.34;100.00
10852;BME280;5479;52.046;6.314;2023-04-02T08:04:15;102030.22;;;4.31;100.00
10852;BME280;5479;52.046;6.314;2023-04-02T08:06:44;102020.56;;;4.31;100.00
10852;BME280;5479;52.046;6.314;2023-04-02T08:09:12;102030.25;;;4.26;100.00
10852;BME280;5479;52.046;6.314;2023-04-02T08:11:42;102038.88;;;4.34;100.00
10852;BME280;5479;52.046;6.314;2023-04-02T08:14:13;102046.84;;;4.26;100.00
10852;BME280;5479;52.046;6.314;2023-04-02T08:16:48;102046.09;;;4.18;100.00
10852;BME280;5479;52.046;6.314;2023-04-02T08:19:17;102048.50;;;4.35;100.00
10852;BME280;5479;52.046;6.314;2023-04-02T08:21:45;102050.72;;;4.61;100.00
10852;BME280;5479;52.046;6.314;2023-04-02T08:24:16;102050.56;;;4.73;100.00
10852;BME280;5479;52.046;6.314;2023-04-02T08:26:45;102058.44;;;4.71;100.00
10852;BME280;5479;52.046;6.314;2023-04-02T08:29:15;102063.47;;;4.85;100.00
10852;BME280;5479;52.046;6.314;2023-04-02T08:31:43;102070.47;;;4.86;100.00
10852;BME280;5479;52.046;6.314;2023-04-02T08:34:11;102071.16;;;4.97;100.00
10852;BME280;5479;52.046;6.314;2023-04-02T08:36:42;102075.72;;;4.84;100.00
10852;BME280;5479;52.046;6.314;2023-04-02T08:39:11;102086.59;;;4.60;100.00
10852;BME280;5479;52.046;6.314;2023-04-02T08:41:43;102079.63;;;4.58;100.00
10852;BME280;5479;52.046;6.314;2023-04-02T08:44:23;102087.75;;;4.98;100.00
10852;BME280;5479;52.046;6.314;2023-04-02T08:46:55;102096.50;;;5.00;100.00
10852;BME280;5479;52.046;6.314;2023-04-02T08:49:30;102099.34;;;4.84;100.00
10852;BME280;5479;52.046;6.314;2023-04-02T08:51:58;102101.22;;;4.78;100.00
10852;BME280;5479;52.046;6.314;2023-04-02T08:54:28;102110.56;;;4.96;100.00
10852;BME280;5479;52.046;6.314;2023-04-02T08:57:01;102119.00;;;5.16;100.00
10852;BME280;5479;52.046;6.314;2023-04-02T08:59:34;102125.06;;;5.19;100.00
10852;BME280;5479;52.046;6.314;2023-04-02T09:02:24;102135.41;;;5.28;100.00
10852;BME280;5479;52.046;6.314;2023-04-02T09:04:55;102135.84;;;5.01;100.00
10852;BME280;5479;52.046;6.314;2023-04-02T09:07:25;102150.97;;;4.85;100.00
10852;BME280;5479;52.046;6.314;2023-04-02T09:09:54;102157.19;;;4.78;100.00
10852;BME280;5479;52.046;6.314;2023-04-02T09:12:25;102146.00;;;4.64;100.00
10852;BME280;5479;52.046;6.314;2023-04-02T09:15:04;102166.00;;;4.76;100.00
10852;BME280;5479;52.046;6.314;2023-04-02T09:17:33;102169.56;;;4.69;100.00
10852;BME280;5479;52.046;6.314;2023-04-02T09:20:13;102166.78;;;4.79;100.00
10852;BME280;5479;52.046;6.314;2023-04-02T09:22:46;102169.22;;;4.93;100.00
10852;BME280;5479;52.046;6.314;2023-04-02T09:25:18;102165.03;;;4.81;100.00
10852;BME280;5479;52.046;6.314;2023-04-02T09:27:48;102176.97;;;5.01;100.00
10852;BME280;5479;52.046;6.314;2023-04-02T09:30:27;102180.25;;;5.18;100.00
10852;BME280;5479;52.046;6.314;2023-04-02T09:32:58;102190.63;;;5.27;100.00
10852;BME280;5479;52.046;6.314;2023-04-02T09:35:30;102187.31;;;5.13;100.00
10852;BME280;5479;52.046;6.314;2023-04-02T09:38:19;102192.50;;;5.19;100.00
10852;BME280;5479;52.046;6.314;2023-04-02T09:40:49;102197.19;;;4.96;100.00
10852;BME280;5479;52.046;6.314;2023-04-02T09:43:19;102200.94;;;4.76;100.00
10852;BME280;5479;52.046;6.314;2023-04-02T09:45:57;102211.66;;;4.61;100.00
10852;BME280;5479;52.046;6.314;2023-04-02T09:48:27;102216.09;;;4.55;100.00
10852;BME280;5479;52.046;6.314;2023-04-02T09:51:06;102216.88;;;4.63;100.00
10852;BME280;5479;52.046;6.314;2023-04-02T09:53:35;102217.53;;;4.81;100.00
10852;BME280;5479;52.046;6.314;2023-04-02T09:56:09;102218.38;;;4.83;100.00
10852;BME280;5479;52.046;6.314;2023-04-02T09:58:41;102219.13;;;4.92;100.00
10852;BME280;5479;52.046;6.314;2023-04-02T10:01:26;102228.75;;;4.89;100.00
10852;BME280;5479;52.046;6.314;2023-04-02T10:03:55;102232.53;;;4.69;100.00
10852;BME280;5479;52.046;6.314;2023-04-02T10:06:25;102238.72;;;4.63;100.00
10852;BME280;5479;52.046;6.314;2023-04-02T10:08:55;102240.94;;;4.97;100.00
10852;BME280;5479;52.046;6.314;2023-04-02T10:11:26;102254.72;;;5.70;100.00
10852;BME280;5479;52.046;6.314;2023-04-02T10:13:58;102252.97;;;6.21;100.00
10852;BME280;5479;52.046;6.314;2023-04-02T10:16:31;102254.22;;;7.30;100.00
10852;BME280;5479;52.046;6.314;2023-04-02T10:19:01;102255.16;;;7.66;98.83
10852;BME280;5479;52.046;6.314;2023-04-02T10:21:35;102254.56;;;8.23;90.83
10852;BME280;5479;52.046;6.314;2023-04-02T10:24:09;102259.59;;;8.64;88.12
10852;BME280;5479;52.046;6.314;2023-04-02T10:26:52;102248.03;;;9.28;76.24
10852;BME280;5479;52.046;6.314;2023-04-02T10:29:33;102258.81;;;9.21;75.24
10852;BME280;5479;52.046;6.314;2023-04-02T10:32:07;102252.78;;;9.17;74.50
10852;BME280;5479;52.046;6.314;2023-04-02T10:34:42;102261.09;;;9.33;72.91
10852;BME280;5479;52.046;6.314;2023-04-02T10:40:16;102256.38;;;10.47;70.21
10852;BME280;5479;52.046;6.314;2023-04-02T10:42:51;102263.22;;;10.77;66.50
10852;BME280;5479;52.046;6.314;2023-04-02T10:45:33;102262.00;;;10.38;64.55
10852;BME280;5479;52.046;6.314;2023-04-02T10:48:10;102272.59;;;10.38;64.98
10852;BME280;5479;52.046;6.314;2023-04-02T10:50:47;102279.56;;;9.62;66.55
10852;BME280;5479;52.046;6.314;2023-04-02T10:53:19;102277.44;;;9.45;65.81
10852;BME280;5479;52.046;6.314;2023-04-02T10:55:49;102278.88;;;9.55;66.09
10852;BME280;5479;52.046;6.314;2023-04-02T10:58:23;102282.91;;;9.95;63.33
10852;BME280;5479;52.046;6.314;2023-04-02T11:00:55;102282.22;;;10.16;63.60
10852;BME280;5479;52.046;6.314;2023-04-02T11:03:31;102284.41;;;10.02;65.00
10852;BME280;5479;52.046;6.314;2023-04-02T11:06:05;102284.84;;;10.16;62.31
10852;BME280;5479;52.046;6.314;2023-04-02T11:08:39;102288.13;;;9.70;62.65
10852;BME280;5479;52.046;6.314;2023-04-02T11:11:11;102285.00;;;9.57;64.82
10852;BME280;5479;52.046;6.314;2023-04-02T11:13:48;102293.94;;;9.81;68.33
10852;BME280;5479;52.046;6.314;2023-04-02T11:16:19;102301.22;;;9.47;63.47
10852;BME280;5479;52.046;6.314;2023-04-02T11:19:27;102308.25;;;8.88;66.59
10852;BME280;5479;52.046;6.314;2023-04-02T11:21:56;102316.06;;;8.91;65.81
10852;BME280;5479;52.046;6.314;2023-04-02T11:24:34;102309.91;;;8.60;70.19
10852;BME280;5479;52.046;6.314;2023-04-02T11:27:06;102307.19;;;9.24;67.31
10852;BME280;5479;52.046;6.314;2023-04-02T11:29:36;102319.25;;;9.03;67.32
10852;BME280;5479;52.046;6.314;2023-04-02T11:32:21;102324.16;;;8.19;69.11
10852;BME280;5479;52.046;6.314;2023-04-02T11:35:34;102314.44;;;7.49;73.93
10852;BME280;5479;52.046;6.314;2023-04-02T11:42:00;102320.31;;;7.61;82.59
10852;BME280;5479;52.046;6.314;2023-04-02T11:44:28;102308.03;;;7.96;83.67
10852;BME280;5479;52.046;6.314;2023-04-02T11:47:15;102323.88;;;8.65;77.06
10852;BME280;5479;52.046;6.314;2023-04-02T11:49:59;102328.13;;;8.70;77.20
10852;BME280;5479;52.046;6.314;2023-04-02T11:52:32;102313.28;;;8.97;72.15
10852;BME280;5479;52.046;6.314;2023-04-02T11:55:20;102305.66;;;9.45;75.00
10852;BME280;5479;52.046;6.314;2023-04-02T12:04:55;102320.19;;;9.59;68.61
10852;BME280;5479;52.046;6.314;2023-04-02T12:10:54;102323.03;;;9.53;65.92
10852;BME280;5479;52.046;6.314;2023-04-02T12:13:46;102331.22;;;9.15;66.12
10852;BME280;5479;52.046;6.314;2023-04-02T12:16:15;102333.78;;;9.18;66.71
10852;BME280;5479;52.046;6.314;2023-04-02T12:18:45;102340.44;;;9.02;66.92
10852;BME280;5479;52.046;6.314;2023-04-02T12:21:15;102338.53;;;9.36;68.31
10852;BME280;5479;52.046;6.314;2023-04-02T12:23:47;102351.56;;;9.42;68.81
10852;BME280;5479;52.046;6.314;2023-04-02T12:26:29;102358.88;;;9.34;68.13
10852;BME280;5479;52.046;6.314;2023-04-02T12:29:16;102361.25;;;9.43;64.26
10852;BME280;5479;52.046;6.314;2023-04-02T12:31:45;102359.81;;;9.61;65.56
10852;BME280;5479;52.046;6.314;2023-04-02T12:34:14;102358.94;;;9.33;66.83
10852;BME280;5479;52.046;6.314;2023-04-02T12:36:53;102360.91;;;9.25;66.25
10852;BME280;5479;52.046;6.314;2023-04-02T12:39:22;102367.97;;;9.24;68.18
10852;BME280;5479;52.046;6.314;2023-04-02T12:41:52;102378.75;;;9.47;68.94
10852;BME280;5479;52.046;6.314;2023-04-02T12:44:21;102369.44;;;9.63;69.07
10852;BME280;5479;52.046;6.314;2023-04-02T12:46:50;102375.34;;;9.71;72.49
10852;BME280;5479;52.046;6.314;2023-04-02T12:49:24;102376.72;;;9.57;69.59
10852;BME280;5479;52.046;6.314;2023-04-02T12:51:56;102381.06;;;9.29;70.68
10852;BME280;5479;52.046;6.314;2023-04-02T12:54:24;102377.19;;;8.79;75.82
10852;BME280;5479;52.046;6.314;2023-04-02T13:00:27;102391.78;;;8.60;70.42
10852;BME280;5479;52.046;6.314;2023-04-02T13:03:08;102392.44;;;8.68;73.54
10852;BME280;5479;52.046;6.314;2023-04-02T13:05:44;102397.72;;;8.68;73.26
10852;BME280;5479;52.046;6.314;2023-04-02T13:08:16;102386.28;;;9.01;75.36
10852;BME280;5479;52.046;6.314;2023-04-02T13:10:51;102398.91;;;8.90;70.23
10852;BME280;5479;52.046;6.314;2023-04-02T13:13:25;102387.25;;;8.65;70.33
10852;BME280;5479;52.046;6.314;2023-04-02T13:16:06;102388.34;;;8.90;73.39
10852;BME280;5479;52.046;6.314;2023-04-02T13:18:36;102398.75;;;8.96;67.81
10852;BME280;5479;52.046;6.314;2023-04-02T13:21:05;102391.97;;;8.86;69.47
10852;BME280;5479;52.046;6.314;2023-04-02T13:23:35;102388.25;;;8.93;66.80
10852;BME280;5479;52.046;6.314;2023-04-02T13:26:11;102394.50;;;8.90;67.84
10852;BME280;5479;52.046;6.314;2023-04-02T13:28:43;102388.41;;;8.87;69.35
10852;BME280;5479;52.046;6.314;2023-04-02T13:31:21;102389.81;;;9.00;67.66
10852;BME280;5479;52.046;6.314;2023-04-02T13:33:50;102387.31;;;8.95;67.78
10852;BME280;5479;52.046;6.314;2023-04-02T13:36:18;102385.25;;;9.05;68.50
10852;BME280;5479;52.046;6.314;2023-04-02T13:38:46;102388.25;;;9.24;69.24
10852;BME280;5479;52.046;6.314;2023-04-02T13:41:19;102389.50;;;9.12;67.03
10852;BME280;5479;52.046;6.314;2023-04-02T13:43:49;102395.25;;;8.94;69.22
10852;BME280;5479;52.046;6.314;2023-04-02T13:46:21;102405.00;;;8.92;70.53
10852;BME280;5479;52.046;6.314;2023-04-02T13:48:51;102391.63;;;8.98;70.21
10852;BME280;5479;52.046;6.314;2023-04-02T13:51:21;102392.94;;;9.14;72.46
10852;BME280;5479;52.046;6.314;2023-04-02T13:53:53;102401.09;;;9.06;68.12
10852;BME280;5479;52.046;6.314;2023-04-02T13:56:22;102394.66;;;9.15;70.30